Time;durP1;ratioP1;P1;durP2;ratioP2;P2;SDS_P1;SDS_P2;PMS_P1;PMS_P2;Temp;Humidity;BMP_temperature;BMP_pressure;BME280_temperature;BME280_humidity;BME280_pressure;Samples;Min_cycle;Max_cycle;Signal;HPM_P1;HPM_P2
2023/01/30 00:00:04;;;;;;;31.00;19.23;;;2.40;88.80;;;;;;5030856;28;20215;-64
2023/01/30 00:02:31;;;;;;;37.47;19.90;;;2.40;88.70;;;;;;5029316;28;20207;-64
2023/01/30 00:04:58;;;;;;;34.23;20.07;;;2.40;88.70;;;;;;5035223;28;20247;-64
2023/01/30 00:07:25;;;;;;;32.43;19.60;;;2.40;88.60;;;;;;5042871;28;20658;-64
2023/01/30 00:09:52;;;;;;;33.60;21.03;;;2.40;88.60;;;;;;5033989;28;20285;-63
2023/01/30 00:12:19;;;;;;;32.93;19.27;;;2.40;88.60;;;;;;5036218;28;20634;-64
2023/01/30 00:14:46;;;;;;;30.50;18.37;;;2.40;88.60;;;;;;5036745;28;20207;-64
2023/01/30 00:17:13;;;;;;;34.87;19.77;;;2.40;88.60;;;;;;5029516;28;20222;-64
2023/01/30 00:19:40;;;;;;;32.97;20.00;;;2.40;88.60;;;;;;5034148;28;20205;-64
2023/01/30 00:22:07;;;;;;;37.47;19.27;;;2.40;88.50;;;;;;5037273;28;20192;-63
2023/01/30 00:24:34;;;;;;;31.37;18.87;;;2.40;88.40;;;;;;5032143;28;20231;-64
2023/01/30 00:27:01;;;;;;;32.47;20.07;;;2.40;88.30;;;;;;5030356;28;20212;-63
2023/01/30 00:29:28;;;;;;;29.33;18.23;;;2.30;88.20;;;;;;5033530;28;20219;-64
2023/01/30 00:31:55;;;;;;;34.47;20.03;;;2.30;88.10;;;;;;5038407;28;20263;-65
2023/01/30 00:34:22;;;;;;;31.13;19.07;;;2.20;88.80;;;;;;5039269;28;20211;-64
2023/01/30 00:36:50;;;;;;;31.37;18.10;;;2.20;88.10;;;;;;5035486;28;20209;-64
2023/01/30 00:39:33;;;;;;;40.73;19.87;;;2.20;88.20;;;;;;5024545;28;20209;-63
2023/01/30 00:47:31;;;;;;;31.03;18.30;;;2.00;88.30;;;;;;5035966;28;20646;-64
2023/01/30 00:49:58;;;;;;;36.47;18.97;;;2.00;88.40;;;;;;5033754;28;20214;-64
2023/01/30 00:52:25;;;;;;;34.53;19.90;;;2.00;88.50;;;;;;5037656;28;20288;-64
2023/01/30 00:54:52;;;;;;;34.80;19.03;;;2.00;88.50;;;;;;5034973;28;20216;-64
2023/01/30 00:57:19;;;;;;;37.17;20.10;;;1.90;88.50;;;;;;5038379;28;20210;-64
2023/01/30 00:59:47;;;;;;;33.27;18.53;;;1.90;88.60;;;;;;5036944;28;20527;-64
2023/01/30 01:02:15;;;;;;;31.80;19.57;;;1.90;88.80;;;;;;5034823;28;20188;-64
2023/01/30 01:04:42;;;;;;;33.93;19.87;;;1.90;88.90;;;;;;5033475;28;20256;-64
2023/01/30 01:07:11;;;;;;;29.00;17.73;;;1.90;88.90;;;;;;5034545;28;20196;-64
2023/01/30 01:09:38;;;;;;;30.50;18.37;;;1.90;89.00;;;;;;5033093;28;20201;-64
2023/01/30 01:12:06;;;;;;;32.50;18.57;;;1.90;89.10;;;;;;5006634;28;20206;-64
2023/01/30 01:14:34;;;;;;;35.37;18.80;;;1.90;89.10;;;;;;5036174;28;20220;-64
2023/01/30 01:17:01;;;;;;;29.27;17.97;;;1.90;89.10;;;;;;5039627;28;20216;-64
2023/01/30 01:19:28;;;;;;;30.67;19.20;;;1.90;89.00;;;;;;5034236;28;20213;-64
2023/01/30 01:21:55;;;;;;;28.97;18.47;;;1.80;89.00;;;;;;5039982;28;20248;-63
2023/01/30 01:24:22;;;;;;;32.33;18.57;;;1.80;89.10;;;;;;5033072;28;20228;-64
2023/01/30 01:26:49;;;;;;;32.97;18.87;;;1.80;89.20;;;;;;5035829;28;20197;-64
2023/01/30 01:29:16;;;;;;;33.00;18.37;;;1.80;89.30;;;;;;5043056;28;20197;-64
2023/01/30 01:31:44;;;;;;;35.07;18.40;;;1.80;89.40;;;;;;5035713;28;20263;-64
2023/01/30 01:34:11;;;;;;;26.27;17.30;;;1.80;89.50;;;;;;5038036;28;20200;-63
2023/01/30 01:36:43;;;;;;;29.90;18.27;;;1.80;89.30;;;;;;5035575;28;20286;-63
2023/01/30 01:41:00;;;;;;;30.83;18.73;;;1.80;89.00;;;;;;5042701;28;20214;-63
2023/01/30 01:42:12;;;;;;;29.67;17.77;;;1.70;88.90;;;;;;5031256;28;20221;-64
2023/01/30 01:45:16;;;;;;;31.47;18.97;;;1.70;88.90;;;;;;5038280;28;20265;-64
2023/01/30 01:48:09;;;;;;;28.47;16.50;;;1.70;89.00;;;;;;5024016;28;20252;-64
2023/01/30 01:50:51;;;;;;;30.10;17.50;;;1.60;89.00;;;;;;5022708;28;20206;-63
2023/01/30 01:53:21;;;;;;;27.00;16.87;;;1.60;89.20;;;;;;5038570;28;20639;-64
2023/01/30 01:55:52;;;;;;;27.90;15.63;;;1.60;89.30;;;;;;5039764;28;20643;-63
2023/01/30 01:58:28;;;;;;;30.47;16.83;;;1.60;89.40;;;;;;5040424;28;20217;-64
2023/01/30 02:00:57;;;;;;;37.13;18.00;;;1.60;89.50;;;;;;5036714;28;20219;-63
2023/01/30 02:03:27;;;;;;;33.57;18.77;;;1.60;89.60;;;;;;5033783;28;20260;-65
2023/01/30 02:05:58;;;;;;;33.23;17.50;;;1.60;89.70;;;;;;5032772;28;20203;-64
2023/01/30 02:08:33;;;;;;;30.13;17.20;;;1.60;89.70;;;;;;5053742;28;20212;-64
2023/01/30 02:11:06;;;;;;;28.50;17.40;;;1.60;89.80;;;;;;5040810;28;20219;-64
2023/01/30 02:13:37;;;;;;;36.30;18.10;;;1.60;89.90;;;;;;5024542;28;20303;-64
2023/01/30 02:16:06;;;;;;;32.57;17.33;;;1.60;89.80;;;;;;5035426;28;20617;-64
2023/01/30 02:18:37;;;;;;;29.20;17.50;;;1.60;89.90;;;;;;5039358;28;20207;-64
2023/01/30 02:21:34;;;;;;;25.90;15.97;;;1.60;90.00;;;;;;5039111;28;20209;-64
2023/01/30 02:24:30;;;;;;;34.43;17.17;;;1.60;90.00;;;;;;5039403;28;20223;-64
2023/01/30 02:27:12;;;;;;;27.33;16.47;;;1.50;90.00;;;;;;5038261;28;20214;-64
2023/01/30 02:29:44;;;;;;;27.83;16.47;;;1.50;90.00;;;;;;5039090;28;20558;-64
2023/01/30 02:32:33;;;;;;;25.80;15.77;;;1.50;90.00;;;;;;5039951;28;20196;-64
2023/01/30 02:35:37;;;;;;;27.17;15.23;;;1.50;90.00;;;;;;5035865;28;20198;-64
2023/01/30 02:38:44;;;;;;;30.03;16.93;;;1.50;89.70;;;;;;5032876;28;20224;-64
2023/01/30 02:41:20;;;;;;;27.97;16.13;;;1.40;89.40;;;;;;5041631;28;20705;-64
2023/01/30 02:44:07;;;;;;;26.23;14.50;;;1.40;89.50;;;;;;5023740;28;20211;-64
2023/01/30 02:46:39;;;;;;;29.37;16.57;;;1.40;89.70;;;;;;5040495;28;20293;-64
2023/01/30 02:49:06;;;;;;;29.80;16.17;;;1.40;89.90;;;;;;5035428;28;20206;-64
2023/01/30 02:51:36;;;;;;;28.60;16.47;;;1.30;89.90;;;;;;5036465;28;20227;-64
2023/01/30 02:54:09;;;;;;;29.87;15.97;;;1.40;90.00;;;;;;5035878;28;20212;-64
2023/01/30 02:56:45;;;;;;;24.80;15.17;;;1.30;90.00;;;;;;5038362;28;20260;-64
2023/01/30 02:59:18;;;;;;;24.73;14.10;;;1.30;90.00;;;;;;5032700;28;20290;-65
2023/01/30 03:02:39;;;;;;;24.47;14.57;;;1.30;90.00;;;;;;5019297;28;20602;-66
2023/01/30 03:05:19;;;;;;;25.50;14.87;;;1.30;90.00;;;;;;5021267;28;20205;-64
2023/01/30 03:07:59;;;;;;;27.67;14.73;;;1.30;90.00;;;;;;5015791;28;20208;-65
2023/01/30 03:10:26;;;;;;;27.13;14.73;;;1.30;89.90;;;;;;5039746;28;20543;-64
2023/01/30 03:13:11;;;;;;;26.60;15.33;;;1.20;89.80;;;;;;5038539;28;20250;-64
2023/01/30 03:15:52;;;;;;;23.40;13.80;;;1.20;89.90;;;;;;5043543;28;20682;-64
2023/01/30 03:18:20;;;;;;;19.47;12.03;;;1.20;89.90;;;;;;5022984;28;20202;-64
2023/01/30 03:20:48;;;;;;;21.57;14.03;;;1.20;89.80;;;;;;5038470;28;20321;-64
2023/01/30 03:23:15;;;;;;;22.20;12.67;;;1.20;89.90;;;;;;5032833;28;20196;-64
2023/01/30 03:25:44;;;;;;;20.20;12.87;;;1.20;90.00;;;;;;5037197;28;20201;-64
2023/01/30 03:28:15;;;;;;;21.87;12.20;;;1.10;90.00;;;;;;5037268;28;20196;-65
2023/01/30 03:30:43;;;;;;;23.50;13.00;;;1.10;89.90;;;;;;5032057;28;20255;-64
2023/01/30 03:33:10;;;;;;;22.67;13.93;;;1.10;89.80;;;;;;5036099;28;20289;-64
2023/01/30 03:35:39;;;;;;;23.77;13.77;;;1.10;89.80;;;;;;5036280;28;20551;-64
2023/01/30 03:38:07;;;;;;;22.93;12.50;;;1.10;90.00;;;;;;5032433;28;20193;-64
2023/01/30 03:40:34;;;;;;;23.07;12.40;;;1.10;90.00;;;;;;5038817;28;20195;-64
2023/01/30 03:43:01;;;;;;;25.00;13.07;;;1.10;90.00;;;;;;5036574;28;20208;-64
2023/01/30 03:45:29;;;;;;;18.97;12.07;;;1.10;90.00;;;;;;5038137;28;20268;-64
2023/01/30 03:47:57;;;;;;;22.40;13.60;;;1.10;90.00;;;;;;5018716;28;20197;-64
2023/01/30 03:50:24;;;;;;;21.13;12.83;;;1.10;90.00;;;;;;5031241;28;20250;-64
2023/01/30 03:52:51;;;;;;;22.03;12.77;;;1.10;89.90;;;;;;5035741;28;20212;-64
2023/01/30 03:55:20;;;;;;;19.70;11.30;;;1.10;89.90;;;;;;5036857;28;20709;-64
2023/01/30 03:57:48;;;;;;;20.37;11.30;;;1.10;90.00;;;;;;5039593;28;20292;-64
2023/01/30 04:00:17;;;;;;;21.37;12.30;;;1.10;90.00;;;;;;5030393;28;20211;-64
2023/01/30 04:02:48;;;;;;;21.87;12.27;;;1.10;89.90;;;;;;5031362;28;20236;-64
2023/01/30 04:05:17;;;;;;;18.77;11.77;;;1.10;89.90;;;;;;5046400;28;20209;-64
2023/01/30 04:07:54;;;;;;;22.27;11.90;;;1.10;89.80;;;;;;5045459;28;20634;-64
2023/01/30 04:10:22;;;;;;;21.17;11.90;;;1.10;89.80;;;;;;5035761;28;20201;-64
2023/01/30 04:12:49;;;;;;;19.33;11.63;;;1.00;89.50;;;;;;5038420;28;20445;-64
2023/01/30 04:15:18;;;;;;;21.07;12.40;;;1.00;89.50;;;;;;5021817;28;20559;-64
2023/01/30 04:18:06;;;;;;;22.87;12.17;;;1.00;89.60;;;;;;5035344;28;20208;-64
2023/01/30 04:20:57;;;;;;;17.33;10.80;;;1.00;89.60;;;;;;5024367;28;20275;-64
2023/01/30 04:23:33;;;;;;;25.20;11.73;;;1.00;89.70;;;;;;5033966;28;20654;-64
2023/01/30 04:26:03;;;;;;;23.07;11.73;;;1.00;89.80;;;;;;5025275;28;20210;-64
2023/01/30 04:28:33;;;;;;;20.60;11.50;;;1.00;89.80;;;;;;5042368;28;20208;-64
2023/01/30 04:31:01;;;;;;;19.40;10.97;;;1.00;89.80;;;;;;5029621;28;20259;-64
2023/01/30 04:33:41;;;;;;;19.93;11.53;;;1.00;89.80;;;;;;5022428;28;20226;-65
2023/01/30 04:36:10;;;;;;;20.87;12.30;;;1.00;89.70;;;;;;5034262;28;20205;-65
2023/01/30 04:38:38;;;;;;;18.23;11.87;;;1.00;89.60;;;;;;5031106;28;20199;-64
2023/01/30 04:41:06;;;;;;;21.30;11.83;;;1.00;89.50;;;;;;5054047;28;20223;-64
2023/01/30 04:43:36;;;;;;;19.37;12.00;;;1.00;89.50;;;;;;5035673;28;20227;-64
2023/01/30 04:46:23;;;;;;;18.67;11.10;;;1.00;89.50;;;;;;5034804;28;20207;-64
2023/01/30 04:48:50;;;;;;;18.77;11.63;;;1.00;89.50;;;;;;5034591;28;20207;-64
2023/01/30 04:51:17;;;;;;;17.67;11.30;;;1.00;89.40;;;;;;5044242;28;20216;-64
2023/01/30 04:53:44;;;;;;;22.67;10.93;;;1.00;89.30;;;;;;5049947;28;20263;-65
2023/01/30 04:56:12;;;;;;;20.10;11.70;;;1.00;89.30;;;;;;5040592;28;20214;-65
2023/01/30 04:58:40;;;;;;;18.60;10.67;;;1.00;89.10;;;;;;5032050;28;20722;-64
2023/01/30 05:01:19;;;;;;;19.77;10.47;;;0.90;88.90;;;;;;5043900;28;20241;-64
2023/01/30 05:03:51;;;;;;;18.40;10.53;;;0.90;88.70;;;;;;5025936;28;20667;-64
2023/01/30 05:06:19;;;;;;;20.47;11.10;;;0.80;88.30;;;;;;5040685;28;20224;-64
2023/01/30 05:08:51;;;;;;;18.60;10.20;;;0.80;88.30;;;;;;5039380;28;20211;-64
2023/01/30 05:11:18;;;;;;;15.33;9.87;;;0.80;88.40;;;;;;5036336;28;20604;-63
2023/01/30 05:13:46;;;;;;;17.40;10.13;;;0.70;88.50;;;;;;5042503;28;20207;-64
2023/01/30 05:16:15;;;;;;;20.80;11.47;;;0.70;88.50;;;;;;5036001;28;20201;-63
2023/01/30 05:18:42;;;;;;;17.17;10.20;;;0.70;88.70;;;;;;5035111;28;20221;-64
2023/01/30 05:21:13;;;;;;;20.47;9.70;;;0.70;88.80;;;;;;5036505;28;20203;-64
2023/01/30 05:23:40;;;;;;;18.47;10.33;;;0.70;88.90;;;;;;5033026;28;20705;-64
2023/01/30 05:26:08;;;;;;;17.47;9.83;;;0.70;88.90;;;;;;5035977;28;20299;-64
2023/01/30 05:28:35;;;;;;;17.83;10.43;;;0.70;89.00;;;;;;5040144;28;20271;-64
2023/01/30 05:31:08;;;;;;;21.97;11.53;;;0.80;89.20;;;;;;5038824;28;20199;-63
2023/01/30 05:33:35;;;;;;;18.37;10.40;;;0.80;89.30;;;;;;5038492;28;20205;-64
2023/01/30 05:36:02;;;;;;;15.27;9.53;;;0.80;89.30;;;;;;5036067;28;20200;-64
2023/01/30 05:38:30;;;;;;;14.93;9.37;;;0.90;89.40;;;;;;5039324;28;20211;-64
2023/01/30 05:40:58;;;;;;;19.10;9.73;;;0.90;89.50;;;;;;5039545;28;20209;-64
2023/01/30 05:43:25;;;;;;;18.33;10.03;;;0.90;89.50;;;;;;5035130;28;20226;-65
2023/01/30 05:45:53;;;;;;;17.03;8.80;;;1.00;89.50;;;;;;5037000;28;20213;-64
2023/01/30 05:48:21;;;;;;;16.07;9.00;;;1.00;89.40;;;;;;5046601;28;20221;-64
2023/01/30 05:50:53;;;;;;;13.77;8.33;;;1.00;89.30;;;;;;5034112;28;20191;-65
2023/01/30 05:53:22;;;;;;;17.00;9.50;;;1.00;89.00;;;;;;5038958;28;20245;-64
2023/01/30 05:55:57;;;;;;;15.37;8.63;;;1.00;88.80;;;;;;5045903;28;20264;-65
2023/01/30 05:58:24;;;;;;;14.83;8.97;;;1.00;88.70;;;;;;5038673;28;20634;-65
2023/01/30 06:00:52;;;;;;;12.73;9.23;;;1.00;88.70;;;;;;5037399;28;20659;-64
2023/01/30 06:03:19;;;;;;;12.03;8.27;;;0.90;88.60;;;;;;5036702;28;20255;-65
2023/01/30 06:05:46;;;;;;;16.07;10.13;;;0.90;88.70;;;;;;5037528;28;20204;-64
2023/01/30 06:08:13;;;;;;;14.73;9.43;;;0.90;88.80;;;;;;5041923;28;20204;-64
2023/01/30 06:10:40;;;;;;;18.73;10.53;;;0.90;88.80;;;;;;5032479;28;20235;-66
2023/01/30 06:13:09;;;;;;;18.30;9.77;;;0.90;88.80;;;;;;5033579;28;20221;-64
2023/01/30 06:15:37;;;;;;;13.33;9.23;;;0.90;88.70;;;;;;5039335;28;20213;-66
2023/01/30 06:18:04;;;;;;;14.80;9.43;;;0.90;88.70;;;;;;5028860;28;20199;-64
2023/01/30 06:20:31;;;;;;;16.17;10.03;;;0.80;88.70;;;;;;5038267;28;20219;-64
2023/01/30 06:22:58;;;;;;;14.47;9.77;;;0.80;88.70;;;;;;5036647;28;20209;-64
2023/01/30 06:25:26;;;;;;;16.50;9.33;;;0.80;88.80;;;;;;5041597;28;20204;-64
2023/01/30 06:27:53;;;;;;;14.60;9.07;;;0.80;88.90;;;;;;5040414;28;20261;-64
2023/01/30 06:30:20;;;;;;;19.60;9.77;;;0.80;88.90;;;;;;5037476;28;20236;-65
2023/01/30 06:32:50;;;;;;;18.23;9.17;;;0.80;89.00;;;;;;5038316;28;20228;-64
2023/01/30 06:35:18;;;;;;;15.43;9.90;;;0.80;89.10;;;;;;5033550;28;20249;-64
2023/01/30 06:37:46;;;;;;;17.07;10.10;;;0.80;89.10;;;;;;5038088;28;20205;-64
2023/01/30 06:40:13;;;;;;;15.37;8.10;;;0.80;89.10;;;;;;5032727;28;20196;-64
2023/01/30 06:42:47;;;;;;;15.53;9.40;;;0.80;89.00;;;;;;5030470;28;20227;-65
2023/01/30 06:45:16;;;;;;;17.53;9.20;;;0.80;88.90;;;;;;5033615;28;20199;-65
2023/01/30 06:47:52;;;;;;;15.30;8.90;;;0.70;88.90;;;;;;5035162;28;20629;-64
2023/01/30 06:50:21;;;;;;;15.90;10.03;;;0.80;89.00;;;;;;5040258;28;20195;-65
2023/01/30 06:52:49;;;;;;;12.60;9.07;;;0.80;89.00;;;;;;5041509;28;20235;-65
2023/01/30 06:55:19;;;;;;;15.30;9.37;;;0.80;89.00;;;;;;5037345;28;20640;-64
2023/01/30 06:57:48;;;;;;;21.93;9.47;;;0.90;88.90;;;;;;5039906;28;20730;-65
2023/01/30 07:00:19;;;;;;;16.47;8.80;;;0.90;88.60;;;;;;5036233;28;20623;-65
2023/01/30 07:02:46;;;;;;;16.13;9.53;;;1.00;88.40;;;;;;5037864;28;20240;-65
2023/01/30 07:05:13;;;;;;;15.47;8.93;;;1.10;88.20;;;;;;5034540;28;20194;-64
2023/01/30 07:07:40;;;;;;;13.70;8.77;;;1.20;88.00;;;;;;5036795;28;20201;-65
2023/01/30 07:10:10;;;;;;;15.50;8.63;;;1.20;87.80;;;;;;5042036;28;20214;-64
2023/01/30 07:12:37;;;;;;;15.70;9.10;;;1.20;88.00;;;;;;5023050;28;20295;-66
2023/01/30 07:15:05;;;;;;;15.57;8.13;;;1.30;88.10;;;;;;5038532;28;20272;-66
2023/01/30 07:17:32;;;;;;;15.20;8.53;;;1.50;88.10;;;;;;5041117;28;20241;-65
2023/01/30 07:19:59;;;;;;;16.37;8.47;;;1.60;87.90;;;;;;5034472;28;20287;-65
2023/01/30 07:22:26;;;;;;;15.80;9.27;;;1.80;87.50;;;;;;5033893;28;20548;-65
2023/01/30 07:24:54;;;;;;;13.90;8.57;;;2.10;86.80;;;;;;5034717;28;20570;-64
2023/01/30 07:27:21;;;;;;;16.60;9.47;;;2.20;86.20;;;;;;5032317;28;20225;-66
2023/01/30 07:29:48;;;;;;;16.07;9.53;;;2.40;85.20;;;;;;5034487;28;20227;-65
2023/01/30 07:32:18;;;;;;;17.50;9.17;;;2.50;84.50;;;;;;5039087;28;20205;-65
2023/01/30 07:34:46;;;;;;;16.63;10.00;;;2.50;84.40;;;;;;5031243;28;20704;-64
2023/01/30 07:37:14;;;;;;;17.30;10.33;;;2.50;84.70;;;;;;5031638;28;20217;-64
2023/01/30 07:39:40;;;;;;;20.60;12.87;;;2.50;84.90;;;;;;5035346;28;20203;-64
2023/01/30 07:42:08;;;;;;;17.67;12.10;;;2.50;85.10;;;;;;5041770;28;20231;-64
2023/01/30 07:44:35;;;;;;;18.57;11.87;;;2.60;85.30;;;;;;5033981;28;20206;-64
2023/01/30 07:47:02;;;;;;;20.50;11.80;;;2.60;85.30;;;;;;5040904;28;20195;-64
2023/01/30 07:49:29;;;;;;;18.70;10.83;;;2.70;85.40;;;;;;5035458;28;20210;-64
2023/01/30 07:51:56;;;;;;;16.47;11.13;;;2.90;85.10;;;;;;5035350;28;20201;-64
2023/01/30 07:54:23;;;;;;;20.07;11.83;;;3.00;84.70;;;;;;5036666;28;20206;-65
2023/01/30 07:56:50;;;;;;;23.20;13.40;;;3.10;84.40;;;;;;5031719;28;20198;-67
2023/01/30 07:59:18;;;;;;;18.97;10.37;;;3.30;84.20;;;;;;5033877;28;20640;-64
2023/01/30 08:01:44;;;;;;;14.67;10.07;;;3.40;84.00;;;;;;5033274;28;20271;-64
2023/01/30 08:04:11;;;;;;;15.67;9.83;;;3.50;83.80;;;;;;5035354;28;21112;-65
2023/01/30 08:06:39;;;;;;;18.57;9.57;;;3.50;83.50;;;;;;5034889;28;20205;-64
2023/01/30 08:09:06;;;;;;;17.07;10.00;;;3.60;83.40;;;;;;5042332;28;20292;-65
2023/01/30 08:11:33;;;;;;;16.70;10.23;;;3.60;83.30;;;;;;5037004;28;20206;-64
2023/01/30 08:14:01;;;;;;;18.80;9.73;;;3.60;83.30;;;;;;5035083;28;20369;-64
2023/01/30 08:16:30;;;;;;;12.90;8.97;;;3.70;83.50;;;;;;5031748;28;20260;-65
2023/01/30 08:18:58;;;;;;;17.10;9.97;;;3.70;83.50;;;;;;5037327;28;20323;-65
2023/01/30 08:21:25;;;;;;;14.67;9.83;;;3.70;83.40;;;;;;5034477;28;20225;-65
2023/01/30 08:23:52;;;;;;;15.50;10.53;;;3.80;83.20;;;;;;5035361;28;20228;-64
2023/01/30 08:26:19;;;;;;;18.07;9.87;;;3.90;83.10;;;;;;5040358;28;20272;-65
2023/01/30 08:28:46;;;;;;;17.23;9.33;;;4.00;83.00;;;;;;5033183;28;20208;-65
2023/01/30 08:31:15;;;;;;;17.10;10.47;;;4.10;82.80;;;;;;5037228;28;20653;-65
2023/01/30 08:33:43;;;;;;;16.90;10.03;;;4.20;82.60;;;;;;5038198;28;20221;-64
2023/01/30 08:36:10;;;;;;;17.67;9.60;;;4.30;82.30;;;;;;5039428;28;20206;-65
2023/01/30 08:38:37;;;;;;;16.33;9.40;;;4.40;82.10;;;;;;5037401;28;20209;-65
2023/01/30 08:41:07;;;;;;;16.20;10.60;;;4.50;81.90;;;;;;5034575;28;20894;-65
2023/01/30 08:43:34;;;;;;;19.97;10.40;;;4.70;81.60;;;;;;5030963;28;20217;-65
2023/01/30 08:46:01;;;;;;;15.70;9.90;;;4.80;81.20;;;;;;5030863;28;20302;-65
2023/01/30 08:48:29;;;;;;;18.77;9.77;;;4.90;80.80;;;;;;5034756;28;20217;-65
2023/01/30 08:51:13;;;;;;;14.40;10.00;;;5.00;80.50;;;;;;5033311;28;20194;-64
2023/01/30 08:53:40;;;;;;;23.00;10.77;;;5.20;80.40;;;;;;5031900;28;20195;-65
2023/01/30 08:56:08;;;;;;;19.37;9.97;;;5.30;80.40;;;;;;5040485;28;20304;-63
2023/01/30 08:58:35;;;;;;;15.53;10.10;;;5.40;80.10;;;;;;5034731;28;20213;-65
2023/01/30 09:01:05;;;;;;;17.87;9.93;;;5.60;79.70;;;;;;5033760;28;20218;-66
2023/01/30 09:03:33;;;;;;;19.30;10.17;;;5.70;79.30;;;;;;5033158;28;20235;-65
2023/01/30 09:06:00;;;;;;;18.33;9.47;;;5.80;79.00;;;;;;5031633;28;20584;-65
2023/01/30 09:08:27;;;;;;;17.80;11.50;;;5.80;78.70;;;;;;5039342;28;20198;-65
2023/01/30 09:10:59;;;;;;;16.10;10.03;;;5.80;78.50;;;;;;5029913;28;20205;-64
2023/01/30 09:13:27;;;;;;;20.00;10.23;;;5.90;78.60;;;;;;5040773;28;20537;-64
2023/01/30 09:15:53;;;;;;;15.43;10.17;;;5.90;78.70;;;;;;5029617;28;20256;-64
2023/01/30 09:18:21;;;;;;;20.73;10.87;;;6.00;78.90;;;;;;5029734;28;20527;-65
2023/01/30 09:20:47;;;;;;;17.30;10.80;;;6.10;79.00;;;;;;5036695;28;20218;-64
2023/01/30 09:23:15;;;;;;;20.10;11.00;;;6.30;79.00;;;;;;5031756;28;20216;-64
2023/01/30 09:25:45;;;;;;;22.60;11.83;;;6.50;78.70;;;;;;5032570;28;20197;-63
2023/01/30 09:28:13;;;;;;;22.00;11.60;;;6.60;78.30;;;;;;5038009;28;20309;-64
2023/01/30 09:30:40;;;;;;;19.77;12.53;;;6.70;78.00;;;;;;5040607;28;20195;-62
2023/01/30 09:33:07;;;;;;;22.87;13.17;;;6.80;77.60;;;;;;5037369;28;20207;-64
2023/01/30 09:35:34;;;;;;;23.40;14.00;;;6.80;77.10;;;;;;5040878;28;20547;-63
2023/01/30 09:38:03;;;;;;;27.97;15.30;;;6.90;76.80;;;;;;5035288;28;20643;-63
2023/01/30 09:40:31;;;;;;;27.47;16.33;;;7.00;76.70;;;;;;5038620;28;20202;-63
2023/01/30 09:43:25;;;;;;;23.30;14.27;;;7.10;76.60;;;;;;5033046;28;20215;-63
2023/01/30 09:46:10;;;;;;;23.63;14.87;;;7.20;76.40;;;;;;5035173;28;20198;-62
2023/01/30 09:49:03;;;;;;;30.63;15.27;;;7.30;76.40;;;;;;5035378;28;20263;-62
2023/01/30 09:52:07;;;;;;;30.70;16.80;;;7.40;76.30;;;;;;5036556;28;20197;-62
2023/01/30 09:54:39;;;;;;;22.93;14.07;;;7.50;76.30;;;;;;5027969;28;20205;-63
2023/01/30 09:57:19;;;;;;;26.17;14.50;;;7.50;75.90;;;;;;5040474;28;20205;-66
2023/01/30 10:00:20;;;;;;;20.50;13.23;;;7.50;75.50;;;;;;5038277;28;20215;-63
2023/01/30 10:03:10;;;;;;;24.53;14.60;;;7.50;75.30;;;;;;5041403;28;20257;-62
2023/01/30 10:05:51;;;;;;;22.07;14.57;;;7.40;75.30;;;;;;5038163;28;20236;-63
2023/01/30 10:08:39;;;;;;;24.53;13.60;;;7.40;75.60;;;;;;5034211;28;20754;-64
2023/01/30 10:11:21;;;;;;;25.03;14.70;;;7.30;75.90;;;;;;5036402;28;20199;-63
2023/01/30 10:14:19;;;;;;;24.53;16.10;;;7.30;76.20;;;;;;5041041;28;20256;-65
2023/01/30 10:17:11;;;;;;;24.73;15.70;;;7.30;76.40;;;;;;5031226;28;20211;-63
2023/01/30 10:20:09;;;;;;;24.13;14.87;;;7.30;76.40;;;;;;5035568;28;20191;-63
2023/01/30 10:23:11;;;;;;;31.17;17.10;;;7.30;76.30;;;;;;5033531;28;20315;-63
2023/01/30 10:25:44;;;;;;;26.20;15.53;;;7.30;76.20;;;;;;5043659;28;20206;-64
2023/01/30 10:28:25;;;;;;;25.47;15.37;;;7.30;76.20;;;;;;5041151;28;20201;-62
2023/01/30 10:31:10;;;;;;;25.27;15.77;;;7.30;76.10;;;;;;5040957;28;20207;-65
2023/01/30 10:34:02;;;;;;;24.23;15.10;;;7.30;75.80;;;;;;5036826;28;20198;-65
2023/01/30 10:36:46;;;;;;;30.10;17.47;;;7.30;75.70;;;;;;5038405;28;20648;-62
2023/01/30 10:39:38;;;;;;;28.97;16.60;;;7.30;75.30;;;;;;5034203;28;20203;-63
2023/01/30 10:42:49;;;;;;;28.37;16.77;;;7.30;73.80;;;;;;5023335;28;20230;-65
2023/01/30 10:45:21;;;;;;;28.37;17.37;;;7.20;74.10;;;;;;5043120;28;20229;-64
2023/01/30 10:48:00;;;;;;;29.87;18.53;;;7.10;74.20;;;;;;5031226;28;20216;-63
2023/01/30 10:50:50;;;;;;;29.03;18.17;;;7.10;74.20;;;;;;5040309;28;20197;-64
2023/01/30 10:53:36;;;;;;;29.77;18.13;;;7.20;74.10;;;;;;5040766;28;20207;-62
2023/01/30 10:56:46;;;;;;;33.13;18.63;;;7.20;74.50;;;;;;5033547;28;20199;-64
2023/01/30 10:59:16;;;;;;;35.83;19.03;;;7.30;73.40;;;;;;5021909;28;20202;-64
2023/01/30 11:01:46;;;;;;;30.43;17.73;;;7.50;73.50;;;;;;5043968;28;20277;-63
2023/01/30 11:04:38;;;;;;;31.67;19.67;;;7.60;73.10;;;;;;5034833;28;20238;-65
2023/01/30 11:07:05;;;;;;;31.37;19.30;;;7.70;73.10;;;;;;5035681;28;20188;-65
2023/01/30 11:09:45;;;;;;;32.47;19.70;;;7.70;72.70;;;;;;5034762;28;20191;-64
2023/01/30 11:12:13;;;;;;;35.57;20.27;;;7.70;73.60;;;;;;5030962;28;20191;-64
2023/01/30 11:14:50;;;;;;;38.03;21.10;;;7.80;73.10;;;;;;5038225;28;20221;-64
2023/01/30 11:17:19;;;;;;;36.43;20.50;;;7.80;72.40;;;;;;5041200;28;20199;-65
2023/01/30 11:19:54;;;;;;;40.37;21.63;;;7.90;72.80;;;;;;5035243;28;20252;-63
2023/01/30 11:22:25;;;;;;;34.53;20.13;;;7.90;73.20;;;;;;5042198;28;20628;-65
2023/01/30 11:25:20;;;;;;;35.23;20.37;;;7.90;73.40;;;;;;5033763;28;20218;-65
2023/01/30 11:27:54;;;;;;;31.50;18.93;;;8.00;73.80;;;;;;5034891;28;20677;-65
2023/01/30 11:30:25;;;;;;;36.70;20.63;;;8.10;73.90;;;;;;5036576;28;20613;-64
2023/01/30 11:33:15;;;;;;;31.70;19.57;;;8.10;73.90;;;;;;5035618;28;20201;-65
2023/01/30 11:35:55;;;;;;;32.10;19.33;;;8.20;74.20;;;;;;5030490;28;20223;-68
2023/01/30 11:38:28;;;;;;;35.03;21.07;;;8.30;74.10;;;;;;5038885;28;20514;-64
2023/01/30 11:41:01;;;;;;;32.00;19.23;;;8.40;73.50;;;;;;5028939;28;20257;-64
2023/01/30 11:43:28;;;;;;;32.40;19.07;;;8.50;73.10;;;;;;5037031;28;20216;-65
2023/01/30 11:45:56;;;;;;;31.10;19.70;;;8.50;72.60;;;;;;5035247;28;20196;-63
2023/01/30 11:48:28;;;;;;;28.43;18.60;;;8.50;72.70;;;;;;5035863;28;20207;-65
2023/01/30 11:51:16;;;;;;;28.53;17.87;;;8.50;72.90;;;;;;5035497;28;20277;-64
2023/01/30 11:53:53;;;;;;;34.77;20.50;;;8.60;73.00;;;;;;5039055;28;20214;-63
2023/01/30 11:56:48;;;;;;;34.40;20.77;;;8.60;73.00;;;;;;5036347;28;20195;-63
2023/01/30 11:59:18;;;;;;;34.60;21.07;;;8.80;73.80;;;;;;5033401;28;20192;-64
2023/01/30 12:01:45;;;;;;;29.20;20.00;;;8.90;73.80;;;;;;5039672;28;20217;-65
2023/01/30 12:04:13;;;;;;;30.73;19.93;;;9.10;74.00;;;;;;5033253;28;20254;-66
2023/01/30 12:06:42;;;;;;;35.13;20.37;;;9.20;73.40;;;;;;5032174;28;20639;-63
2023/01/30 12:09:36;;;;;;;32.77;19.53;;;9.40;72.70;;;;;;5039320;28;20197;-66
2023/01/30 12:12:30;;;;;;;33.63;20.53;;;9.60;72.30;;;;;;5037846;28;20202;-66
2023/01/30 12:15:15;;;;;;;32.37;19.57;;;9.70;71.90;;;;;;5037660;28;20212;-66
2023/01/30 12:17:56;;;;;;;31.00;19.90;;;9.90;71.40;;;;;;5035573;28;20279;-66
2023/01/30 12:20:38;;;;;;;34.30;20.17;;;10.00;70.90;;;;;;5039899;28;20202;-66
2023/01/30 12:23:45;;;;;;;33.13;21.80;;;10.10;70.20;;;;;;5033754;28;20658;-66
2023/01/30 12:26:41;;;;;;;32.50;19.23;;;10.20;69.80;;;;;;5021976;28;20210;-66
2023/01/30 12:29:27;;;;;;;32.03;18.27;;;10.20;69.70;;;;;;5020443;28;20202;-66
2023/01/30 12:32:05;;;;;;;34.60;20.53;;;10.30;69.60;;;;;;5039305;28;20260;-66
2023/01/30 12:34:32;;;;;;;33.33;18.87;;;10.40;69.00;;;;;;5027603;28;20293;-66
2023/01/30 12:37:02;;;;;;;33.13;18.87;;;10.50;68.80;;;;;;5032073;28;20565;-66
2023/01/30 12:39:57;;;;;;;29.83;19.73;;;10.50;68.60;;;;;;5039352;28;20627;-66
2023/01/30 12:42:51;;;;;;;29.50;17.23;;;10.60;68.20;;;;;;5015930;28;20554;-66
2023/01/30 12:45:26;;;;;;;29.17;17.37;;;10.60;67.50;;;;;;5032840;28;20193;-66
2023/01/30 12:48:18;;;;;;;28.63;17.50;;;10.70;66.40;;;;;;5032633;28;20223;-66
2023/01/30 12:51:12;;;;;;;30.80;18.00;;;10.70;65.90;;;;;;5020346;28;20217;-66
2023/01/30 12:54:10;;;;;;;27.90;18.47;;;10.70;65.90;;;;;;5033063;28;20246;-66
2023/01/30 12:56:59;;;;;;;28.37;17.23;;;10.70;65.80;;;;;;5034159;28;20226;-65
2023/01/30 12:59:49;;;;;;;28.70;16.23;;;10.70;66.30;;;;;;5028756;28;20631;-64
2023/01/30 13:02:37;;;;;;;30.37;17.90;;;10.80;66.70;;;;;;5029494;28;20220;-65
2023/01/30 13:05:28;;;;;;;30.47;17.53;;;10.80;66.50;;;;;;5031957;28;20227;-63
2023/01/30 13:08:07;;;;;;;29.97;18.00;;;10.80;66.30;;;;;;5037718;28;20267;-64
2023/01/30 13:10:56;;;;;;;30.63;17.80;;;10.80;66.00;;;;;;5034398;28;20228;-63
2023/01/30 13:13:46;;;;;;;30.83;17.40;;;10.80;64.00;;;;;;5037313;28;20260;-64
2023/01/30 13:16:22;;;;;;;30.23;17.80;;;10.70;65.00;;;;;;5036521;28;20201;-64